createdAt,value
2022-11-26T00:00:41.992Z,28.63
2022-11-26T00:03:09.964Z,25.45
2022-11-26T00:05:36.914Z,23.48
2022-11-26T00:08:05.006Z,35.93
2022-11-26T00:10:35.640Z,34.58
2022-11-26T00:13:02.406Z,27.85
2022-11-26T00:15:30.753Z,27.83
2022-11-26T00:17:57.852Z,21.67
2022-11-26T00:20:29.924Z,33.73
2022-11-26T00:23:01.316Z,32.88
2022-11-26T00:25:37.177Z,34.95
2022-11-26T00:28:03.602Z,32.35
2022-11-26T00:30:30.090Z,36.08
2022-11-26T00:32:56.502Z,32.03
2022-11-26T00:35:23.547Z,36.47
2022-11-26T00:37:58.352Z,35.38
2022-11-26T00:40:30.216Z,26.38
2022-11-26T00:43:01.448Z,36.53
2022-11-26T00:45:31.049Z,35.10
2022-11-26T00:47:57.470Z,33.85
2022-11-26T00:50:26.527Z,38.60
2022-11-26T00:52:56.833Z,31.73
2022-11-26T00:55:34.808Z,37.13
2022-11-26T00:58:01.564Z,38.13
2022-11-26T01:00:33.381Z,34.25
2022-11-26T01:03:00.239Z,28.42
2022-11-26T01:05:30.677Z,34.13
2022-11-26T01:08:02.861Z,29.02
2022-11-26T01:10:30.135Z,28.93
2022-11-26T01:12:56.929Z,37.35
2022-11-26T01:15:26.147Z,37.67
2022-11-26T01:17:53.432Z,43.78
2022-11-26T01:20:26.876Z,42.47
2022-11-26T01:22:55.199Z,32.83
2022-11-26T01:25:23.169Z,41.00
2022-11-26T01:27:50.207Z,39.95
2022-11-26T01:30:21.033Z,42.67
2022-11-26T01:32:48.521Z,53.60
2022-11-26T01:35:16.524Z,39.07
2022-11-26T01:37:43.308Z,36.45
2022-11-26T01:40:35.744Z,39.20
2022-11-26T01:43:26.647Z,41.13
2022-11-26T01:45:53.997Z,44.58
2022-11-26T01:48:30.369Z,37.17
2022-11-26T01:51:03.458Z,40.10
2022-11-26T01:53:35.691Z,37.97
2022-11-26T01:56:26.990Z,44.40
2022-11-26T01:58:58.390Z,39.50
2022-11-26T02:01:24.940Z,42.67
2022-11-26T02:04:08.196Z,48.22
2022-11-26T02:06:34.916Z,38.85
2022-11-26T02:09:04.225Z,41.95
2022-11-26T02:11:30.675Z,37.13
2022-11-26T02:14:04.948Z,35.50
2022-11-26T02:17:08.920Z,44.28
2022-11-26T02:19:50.493Z,40.65
2022-11-26T02:22:38.678Z,34.17
2022-11-26T02:25:19.788Z,33.05
2022-11-26T02:28:05.067Z,35.37
2022-11-26T02:30:36.928Z,33.00
2022-11-26T02:33:15.738Z,33.20
2022-11-26T02:36:21.147Z,33.05
2022-11-26T02:38:47.518Z,36.95
2022-11-26T02:41:13.848Z,41.10
2022-11-26T02:43:40.353Z,31.85
2022-11-26T02:46:14.084Z,28.70
2022-11-26T02:48:44.622Z,36.70
2022-11-26T02:51:22.601Z,36.55
2022-11-26T02:53:50.914Z,33.90
2022-11-26T02:56:24.742Z,33.35
2022-11-26T02:58:53.012Z,32.80
2022-11-26T03:01:43.466Z,38.15
2022-11-26T03:04:16.997Z,34.78
2022-11-26T03:06:44.349Z,35.70
2022-11-26T03:09:10.705Z,39.85
2022-11-26T03:11:38.760Z,35.03
2022-11-26T03:14:05.137Z,40.92
2022-11-26T03:16:31.549Z,40.42
2022-11-26T03:18:57.915Z,37.70
2022-11-26T03:21:24.304Z,39.10
2022-11-26T03:23:50.632Z,40.92
2022-11-26T03:26:17.259Z,39.17
2022-11-26T03:28:43.665Z,36.13
2022-11-26T03:31:10.062Z,43.30
2022-11-26T03:33:36.455Z,40.67
2022-11-26T03:36:03.195Z,30.88
2022-11-26T03:38:29.541Z,36.15
2022-11-26T03:41:01.437Z,37.80
2022-11-26T03:43:28.383Z,38.20
2022-11-26T03:45:54.829Z,36.88
2022-11-26T03:48:21.393Z,34.92
2022-11-26T03:50:47.757Z,45.17
2022-11-26T03:53:14.127Z,41.05
2022-11-26T03:55:40.540Z,43.70
2022-11-26T03:58:06.907Z,41.05
2022-11-26T04:00:33.228Z,44.88
2022-11-26T04:02:59.662Z,43.70
2022-11-26T04:05:26.091Z,44.95
2022-11-26T04:07:52.505Z,45.63
2022-11-26T04:10:18.927Z,42.30
2022-11-26T04:12:45.308Z,42.83
2022-11-26T04:15:11.665Z,38.17
2022-11-26T04:17:38.005Z,36.42
2022-11-26T04:20:05.387Z,41.20
2022-11-26T04:22:31.729Z,40.15
2022-11-26T04:24:58.075Z,43.50
2022-11-26T04:27:24.462Z,41.05
2022-11-26T04:29:50.831Z,44.33
2022-11-26T04:32:17.243Z,43.00
2022-11-26T04:34:43.603Z,45.25
2022-11-26T04:37:09.984Z,41.65
2022-11-26T04:39:36.665Z,42.33
2022-11-26T04:42:03.218Z,38.53
2022-11-26T04:44:29.558Z,39.43
2022-11-26T04:46:55.908Z,39.10
2022-11-26T04:49:22.419Z,43.20
2022-11-26T04:51:48.780Z,44.22
2022-11-26T04:54:15.156Z,44.47
2022-11-26T04:56:41.546Z,43.17
2022-11-26T04:59:07.994Z,46.28
2022-11-26T05:01:34.409Z,41.13
2022-11-26T05:04:00.833Z,43.58
2022-11-26T05:06:27.232Z,40.70
2022-11-26T05:08:53.602Z,44.17
2022-11-26T05:11:19.976Z,49.72
2022-11-26T05:13:46.309Z,38.28
2022-11-26T05:16:12.692Z,40.72
2022-11-26T05:18:39.127Z,42.83
2022-11-26T05:21:06.403Z,37.80
2022-11-26T05:23:32.892Z,40.55
2022-11-26T05:25:59.270Z,43.17
2022-11-26T05:28:25.679Z,44.45
2022-11-26T05:31:03.032Z,35.00
2022-11-26T05:33:29.820Z,42.67
2022-11-26T05:35:56.484Z,42.13
2022-11-26T05:38:23.025Z,47.72
2022-11-26T05:40:49.432Z,44.28
2022-11-26T05:43:16.218Z,49.80
2022-11-26T05:45:42.704Z,43.83
2022-11-26T05:48:09.244Z,44.33
2022-11-26T05:50:35.691Z,43.90
2022-11-26T05:53:02.438Z,47.28
2022-11-26T05:55:28.783Z,55.60
2022-11-26T05:57:55.135Z,58.27
2022-11-26T06:00:21.609Z,93.75
2022-11-26T06:02:48.000Z,104.88
2022-11-26T06:05:15.022Z,89.97
2022-11-26T06:07:44.661Z,103.20
2022-11-26T06:10:11.782Z,96.90
2022-11-26T06:12:38.144Z,74.40
2022-11-26T06:15:04.959Z,106.70
2022-11-26T06:17:31.320Z,84.30
2022-11-26T06:19:57.669Z,73.90
2022-11-26T06:22:24.027Z,96.10
2022-11-26T06:24:50.401Z,120.75
2022-11-26T06:27:16.767Z,84.75
2022-11-26T06:29:43.155Z,154.73
2022-11-26T06:32:09.506Z,81.10
2022-11-26T06:34:35.993Z,91.77
2022-11-26T06:37:02.814Z,107.60
2022-11-26T06:39:29.203Z,82.03
2022-11-26T06:41:55.528Z,87.57
2022-11-26T06:44:21.893Z,93.30
2022-11-26T06:46:48.248Z,100.67
2022-11-26T06:49:14.602Z,115.03
2022-11-26T06:51:41.068Z,116.78
2022-11-26T06:54:07.660Z,124.60
2022-11-26T06:56:35.612Z,103.78
2022-11-26T06:59:02.672Z,83.77
2022-11-26T07:01:29.138Z,79.90
2022-11-26T07:03:55.555Z,113.85
2022-11-26T07:06:23.419Z,88.82
2022-11-26T07:08:51.466Z,95.47
2022-11-26T07:11:18.225Z,166.33
2022-11-26T07:13:44.804Z,101.38
2022-11-26T07:16:12.030Z,88.18
2022-11-26T07:18:38.792Z,80.30
2022-11-26T07:21:10.883Z,138.00
2022-11-26T07:23:37.662Z,93.30
2022-11-26T07:26:06.028Z,110.82
2022-11-26T07:28:34.200Z,129.38
2022-11-26T07:31:16.536Z,181.50
2022-11-26T07:33:44.484Z,137.48
2022-11-26T07:36:27.450Z,131.43
2022-11-26T07:38:58.249Z,149.90
2022-11-26T07:41:26.321Z,133.48
2022-11-26T07:43:53.129Z,141.13
2022-11-26T07:46:22.214Z,140.15
2022-11-26T07:48:49.413Z,111.33
2022-11-26T07:51:22.064Z,126.28
2022-11-26T07:53:49.606Z,91.25
2022-11-26T07:56:16.428Z,125.32
2022-11-26T07:58:42.797Z,99.57
2022-11-26T08:01:15.343Z,81.40
2022-11-26T08:03:43.784Z,143.10
2022-11-26T08:06:12.699Z,82.85
2022-11-26T08:08:39.401Z,87.22
2022-11-26T08:11:13.992Z,85.10
2022-11-26T08:13:40.768Z,84.80
2022-11-26T08:16:07.452Z,80.28
2022-11-26T08:18:33.873Z,84.28
2022-11-26T08:21:00.902Z,78.40
2022-11-26T08:23:29.555Z,86.75
2022-11-26T08:28:43.568Z,67.35
2022-11-26T08:31:11.574Z,72.70
2022-11-26T08:33:39.063Z,68.43
2022-11-26T08:36:07.904Z,61.72
2022-11-26T08:38:35.175Z,74.90
2022-11-26T08:41:03.583Z,64.07
2022-11-26T08:43:45.341Z,72.22
2022-11-26T08:46:16.348Z,61.33
2022-11-26T08:48:43.090Z,65.80
2022-11-26T08:51:12.051Z,74.47
2022-11-26T08:53:39.413Z,66.75
2022-11-26T08:56:08.070Z,81.18
2022-11-26T08:58:40.093Z,115.30
2022-11-26T09:01:18.798Z,70.22
2022-11-26T09:03:48.508Z,83.47
2022-11-26T09:06:14.933Z,88.60
2022-11-26T09:09:00.389Z,79.80
2022-11-26T09:11:27.791Z,67.32
2022-11-26T09:13:54.566Z,59.63
2022-11-26T09:16:22.453Z,56.13
2022-11-26T09:18:48.994Z,61.33
2022-11-26T09:21:15.430Z,52.72
2022-11-26T09:23:41.805Z,51.45
2022-11-26T09:26:08.410Z,60.30
2022-11-26T09:28:34.792Z,48.67
2022-11-26T09:31:02.250Z,49.00
2022-11-26T09:33:29.641Z,45.20
2022-11-26T09:36:05.564Z,43.50
2022-11-26T09:38:31.909Z,46.22
2022-11-26T09:41:21.681Z,54.83
2022-11-26T09:44:12.689Z,50.10
2022-11-26T09:47:13.240Z,53.20
2022-11-26T09:50:10.689Z,50.20
2022-11-26T09:52:43.245Z,58.65
2022-11-26T09:55:18.418Z,44.03
2022-11-26T09:57:54.254Z,50.08
2022-11-26T10:00:27.954Z,50.33
2022-11-26T10:02:56.495Z,51.42
2022-11-26T10:05:34.159Z,48.40
2022-11-26T10:08:28.108Z,52.07
2022-11-26T10:11:08.100Z,56.35
2022-11-26T10:14:05.496Z,54.72
2022-11-26T10:17:10.786Z,52.70
2022-11-26T10:20:01.717Z,57.47
2022-11-26T10:22:57.278Z,50.13
2022-11-26T10:25:31.428Z,55.65
2022-11-26T10:27:59.169Z,59.03
2022-11-26T10:30:30.166Z,57.30
2022-11-26T10:33:00.728Z,66.85
2022-11-26T10:35:29.251Z,62.70
2022-11-26T10:37:57.232Z,61.47
2022-11-26T10:40:31.455Z,65.88
2022-11-26T10:43:17.211Z,68.60
2022-11-26T10:45:49.798Z,59.42
2022-11-26T10:48:32.350Z,63.77
2022-11-26T10:51:33.119Z,67.18
2022-11-26T10:54:05.051Z,65.80
2022-11-26T10:56:31.448Z,67.55
2022-11-26T10:59:02.875Z,72.00
2022-11-26T11:01:39.927Z,68.70
2022-11-26T11:04:40.173Z,81.45
2022-11-26T11:07:11.820Z,75.13
2022-11-26T11:09:38.535Z,76.25
2022-11-26T11:12:10.949Z,79.35
2022-11-26T11:14:42.443Z,77.27
2022-11-26T11:17:28.228Z,77.55
2022-11-26T11:19:56.899Z,79.20
2022-11-26T11:22:23.580Z,81.13
2022-11-26T11:24:50.037Z,76.90
2022-11-26T11:27:24.689Z,78.63
2022-11-26T11:29:52.340Z,73.85
2022-11-26T11:32:37.790Z,74.80
2022-11-26T11:35:22.913Z,80.55
2022-11-26T11:37:54.385Z,73.82
2022-11-26T11:40:27.468Z,75.17
2022-11-26T11:43:02.851Z,73.00
2022-11-26T11:45:31.973Z,76.28
2022-11-26T11:48:09.955Z,83.55
2022-11-26T11:50:43.780Z,72.80
2022-11-26T11:53:25.296Z,66.43
2022-11-26T11:56:26.768Z,72.88
2022-11-26T11:59:37.173Z,74.70
2022-11-26T12:02:15.942Z,71.38
2022-11-26T12:04:57.520Z,67.93
2022-11-26T12:07:38.600Z,72.80
2022-11-26T12:10:32.350Z,70.40
2022-11-26T12:13:02.497Z,67.82
2022-11-26T12:15:31.007Z,58.45
2022-11-26T12:18:18.387Z,66.78
2022-11-26T12:20:55.924Z,70.93
2022-11-26T12:23:28.077Z,72.18
2022-11-26T12:26:06.158Z,70.88
2022-11-26T12:28:38.929Z,73.85
2022-11-26T12:31:17.648Z,63.47
2022-11-26T12:34:02.913Z,72.73
2022-11-26T12:36:44.473Z,61.33
2022-11-26T12:39:19.056Z,58.90
2022-11-26T12:42:06.986Z,61.88
2022-11-26T12:44:40.617Z,68.68
2022-11-26T12:47:07.100Z,68.40
2022-11-26T12:50:09.901Z,53.30
2022-11-26T12:52:50.731Z,64.65
2022-11-26T12:55:21.793Z,64.72
2022-11-26T12:58:13.029Z,64.47
2022-11-26T13:00:39.574Z,68.17
2022-11-26T13:03:07.029Z,70.57
2022-11-26T13:05:57.309Z,68.45
2022-11-26T13:08:53.231Z,70.57
2022-11-26T13:11:53.992Z,70.45
2022-11-26T13:14:32.773Z,74.40
2022-11-26T13:17:09.376Z,70.43
2022-11-26T13:19:42.248Z,64.85
2022-11-26T13:22:39.512Z,71.60
2022-11-26T13:25:33.580Z,67.78
2022-11-26T13:28:02.631Z,61.03
2022-11-26T13:31:04.047Z,69.13
2022-11-26T13:34:01.189Z,73.25
2022-11-26T13:36:59.500Z,74.90
2022-11-26T13:39:52.185Z,71.63
2022-11-26T13:42:46.930Z,70.93
2022-11-26T13:45:28.753Z,69.82
2022-11-26T13:48:00.846Z,66.32
2022-11-26T13:50:43.559Z,65.55
2022-11-26T13:53:26.532Z,62.55
2022-11-26T13:56:01.938Z,64.40
2022-11-26T13:58:36.570Z,66.43
2022-11-26T14:01:40.621Z,65.28
2022-11-26T14:04:12.756Z,64.43
2022-11-26T14:07:04.695Z,65.72
2022-11-26T14:09:43.480Z,60.73
2022-11-26T14:12:17.410Z,60.88
2022-11-26T14:14:46.155Z,60.30
2022-11-26T14:17:32.525Z,56.45
2022-11-26T14:20:02.811Z,57.35
2022-11-26T14:22:38.504Z,61.93
2022-11-26T14:25:08.590Z,62.28
2022-11-26T14:27:49.500Z,60.13
2022-11-26T14:30:20.300Z,58.47
2022-11-26T14:33:05.104Z,60.88
2022-11-26T14:35:34.924Z,54.10
2022-11-26T14:38:05.386Z,59.70
2022-11-26T14:40:37.528Z,54.78
2022-11-26T14:43:22.250Z,49.40
2022-11-26T14:46:03.658Z,54.42
2022-11-26T14:48:31.653Z,52.60
2022-11-26T14:51:00.348Z,57.65
2022-11-26T14:53:31.656Z,52.75
2022-11-26T14:55:58.713Z,48.22
2022-11-26T14:58:36.244Z,49.83
2022-11-26T15:01:04.694Z,48.17
2022-11-26T15:03:31.435Z,46.28
2022-11-26T15:05:57.820Z,46.78
2022-11-26T15:08:26.459Z,45.95
2022-11-26T15:10:54.497Z,46.75
2022-11-26T15:13:38.160Z,45.20
2022-11-26T15:16:23.733Z,41.67
2022-11-26T15:18:52.904Z,45.05
2022-11-26T15:21:22.917Z,44.03
2022-11-26T15:23:51.281Z,45.00
2022-11-26T15:26:20.346Z,49.13
2022-11-26T15:28:46.682Z,46.22
2022-11-26T15:31:13.158Z,52.20
2022-11-26T15:33:40.160Z,53.67
2022-11-26T15:36:10.401Z,49.13
2022-11-26T15:39:00.979Z,47.23
2022-11-26T15:41:27.355Z,45.45
2022-11-26T15:43:58.828Z,51.30
2022-11-26T15:46:30.082Z,44.67
2022-11-26T15:49:03.566Z,49.60
2022-11-26T15:51:42.597Z,50.00
2022-11-26T15:54:49.515Z,45.58
2022-11-26T15:57:32.667Z,43.90
2022-11-26T16:00:06.351Z,49.08
2022-11-26T16:02:33.068Z,43.00
2022-11-26T16:05:01.422Z,50.17
2022-11-26T16:07:30.560Z,47.15
2022-11-26T16:10:35.430Z,46.53
2022-11-26T16:13:08.816Z,52.00
2022-11-26T16:15:35.940Z,41.97
2022-11-26T16:18:04.569Z,42.97
2022-11-26T16:20:31.101Z,38.85
2022-11-26T16:23:00.939Z,40.97
2022-11-26T16:25:30.206Z,47.45
2022-11-26T16:28:11.795Z,40.97
2022-11-26T16:30:39.561Z,40.53
2022-11-26T16:33:06.303Z,50.28
2022-11-26T16:35:48.112Z,48.58
2022-11-26T16:38:25.888Z,43.25
2022-11-26T16:40:53.015Z,47.63
2022-11-26T16:43:19.751Z,43.80
2022-11-26T16:45:48.350Z,40.58
2022-11-26T16:48:26.252Z,48.22
2022-11-26T16:50:54.568Z,45.13
2022-11-26T16:53:21.447Z,48.33
2022-11-26T16:55:49.888Z,42.37
2022-11-26T16:58:23.291Z,37.80
2022-11-26T17:00:51.133Z,50.65
2022-11-26T17:03:17.605Z,40.40
2022-11-26T17:05:44.116Z,40.53
2022-11-26T17:08:12.022Z,43.60
2022-11-26T17:10:38.877Z,42.80
2022-11-26T17:13:05.282Z,35.58
2022-11-26T17:15:31.744Z,41.58
2022-11-26T17:18:05.016Z,46.45
2022-11-26T17:20:31.490Z,38.57
2022-11-26T17:22:57.877Z,39.83
2022-11-26T17:25:24.248Z,37.60
2022-11-26T17:27:50.605Z,34.25
2022-11-26T17:30:22.780Z,40.22
2022-11-26T17:32:49.835Z,38.13
2022-11-26T17:35:16.313Z,40.80
2022-11-26T17:37:43.429Z,40.38
2022-11-26T17:40:21.809Z,37.20
2022-11-26T17:42:48.187Z,39.83
2022-11-26T17:45:15.301Z,43.07
2022-11-26T17:47:42.121Z,33.33
2022-11-26T17:50:22.649Z,43.83
2022-11-26T17:52:49.768Z,33.47
2022-11-26T17:55:16.675Z,36.17
2022-11-26T17:57:43.619Z,34.57
2022-11-26T18:00:17.251Z,43.53
2022-11-26T18:02:43.807Z,37.63
2022-11-26T18:05:11.255Z,39.17
2022-11-26T18:07:38.568Z,34.38
2022-11-26T18:10:07.480Z,33.77
2022-11-26T18:12:33.818Z,30.00
2022-11-26T18:15:01.924Z,34.60
2022-11-26T18:17:28.358Z,38.38
2022-11-26T18:19:54.877Z,33.20
2022-11-26T18:22:23.647Z,33.90
2022-11-26T18:24:56.340Z,38.33
2022-11-26T18:27:25.793Z,34.55
2022-11-26T18:29:52.223Z,33.80
2022-11-26T18:32:19.216Z,36.83
2022-11-26T18:34:48.203Z,33.23
2022-11-26T18:37:14.560Z,31.30
2022-11-26T18:39:41.789Z,35.97
2022-11-26T18:42:36.112Z,32.42
2022-11-26T18:44:54.817Z,30.75
2022-11-26T18:47:21.180Z,35.37
2022-11-26T18:49:48.067Z,36.03
2022-11-26T18:52:14.605Z,37.55
2022-11-26T18:54:41.015Z,33.47
2022-11-26T18:57:07.415Z,31.05
2022-11-26T18:59:34.952Z,29.60
2022-11-26T19:02:01.465Z,33.50
2022-11-26T19:04:27.882Z,29.70
2022-11-26T19:06:54.266Z,37.78
2022-11-26T19:09:21.601Z,29.25
2022-11-26T19:11:48.351Z,32.93
2022-11-26T19:14:15.745Z,30.48
2022-11-26T19:16:43.351Z,27.35
2022-11-26T19:19:10.028Z,29.50
2022-11-26T19:21:36.828Z,30.52
2022-11-26T19:24:06.468Z,29.17
2022-11-26T19:26:33.340Z,28.58
2022-11-26T19:29:06.747Z,33.92
2022-11-26T19:31:39.587Z,31.83
2022-11-26T19:34:09.938Z,31.52
2022-11-26T19:36:37.645Z,34.90
2022-11-26T19:39:05.316Z,31.15
2022-11-26T19:41:31.945Z,27.88
2022-11-26T19:44:00.526Z,28.83
2022-11-26T19:46:27.725Z,28.33
2022-11-26T19:48:55.561Z,29.60
2022-11-26T19:51:23.589Z,29.00
2022-11-26T19:53:53.033Z,31.33
2022-11-26T19:56:25.309Z,25.58
2022-11-26T19:58:53.924Z,24.25
2022-11-26T20:01:22.237Z,25.53
2022-11-26T20:03:49.210Z,25.83
2022-11-26T20:06:18.880Z,25.15
2022-11-26T20:08:46.842Z,26.20
2022-11-26T20:11:14.025Z,25.52
2022-11-26T20:13:42.677Z,31.27
2022-11-26T20:16:11.743Z,27.00
2022-11-26T20:18:39.914Z,26.95
2022-11-26T20:21:09.605Z,24.13
2022-11-26T20:23:37.426Z,26.60
2022-11-26T20:26:11.750Z,26.57
2022-11-26T20:28:38.560Z,25.38
2022-11-26T20:31:05.448Z,29.38
2022-11-26T20:33:31.853Z,22.90
2022-11-26T20:35:58.501Z,24.38
2022-11-26T20:38:24.852Z,30.87
2022-11-26T20:40:51.236Z,23.90
2022-11-26T20:43:17.570Z,30.23
2022-11-26T20:45:44.038Z,26.73
2022-11-26T20:48:10.468Z,24.30
2022-11-26T20:50:37.498Z,19.83
2022-11-26T20:53:03.854Z,23.80
2022-11-26T20:55:30.296Z,26.30
2022-11-26T20:57:56.644Z,25.23
2022-11-26T21:00:27.417Z,29.17
2022-11-26T21:02:54.201Z,28.03
2022-11-26T21:05:22.493Z,31.98
2022-11-26T21:07:50.766Z,22.05
2022-11-26T21:10:18.094Z,24.73
2022-11-26T21:12:44.438Z,32.08
2022-11-26T21:15:11.425Z,32.40
2022-11-26T21:17:38.064Z,24.65
2022-11-26T21:20:06.215Z,25.73
2022-11-26T21:22:32.705Z,25.42
2022-11-26T21:24:59.072Z,22.88
2022-11-26T21:27:25.473Z,22.67
2022-11-26T21:29:51.828Z,22.08
2022-11-26T21:32:18.185Z,19.95
2022-11-26T21:34:44.556Z,19.95
2022-11-26T21:37:10.913Z,24.33
2022-11-26T21:39:38.198Z,22.23
2022-11-26T21:42:04.834Z,20.38
2022-11-26T21:44:31.249Z,21.83
2022-11-26T21:46:57.770Z,20.65
2022-11-26T21:49:27.922Z,19.02
2022-11-26T21:51:54.251Z,22.70
2022-11-26T21:54:20.655Z,20.70
2022-11-26T21:56:47.005Z,20.70
2022-11-26T21:59:13.390Z,21.58
2022-11-26T22:01:40.268Z,22.17
2022-11-26T22:04:14.765Z,17.27
2022-11-26T22:06:43.033Z,21.85
2022-11-26T22:09:09.615Z,24.95
2022-11-26T22:11:39.072Z,21.95
2022-11-26T22:14:06.526Z,23.83
2022-11-26T22:16:33.823Z,21.30
2022-11-26T22:19:01.213Z,26.48
2022-11-26T22:21:31.826Z,20.55
2022-11-26T22:23:59.628Z,20.20
2022-11-26T22:26:26.596Z,25.33
2022-11-26T22:28:53.161Z,19.87
2022-11-26T22:31:27.829Z,25.90
2022-11-26T22:33:57.002Z,22.45
2022-11-26T22:36:24.260Z,19.20
2022-11-26T22:38:50.632Z,25.75
2022-11-26T22:41:17.045Z,22.03
2022-11-26T22:43:43.735Z,18.40
2022-11-26T22:46:13.234Z,20.42
2022-11-26T22:48:40.541Z,25.83
2022-11-26T22:51:07.166Z,20.40
2022-11-26T22:53:33.683Z,21.83
2022-11-26T22:56:02.056Z,19.05
2022-11-26T22:58:29.528Z,32.28
2022-11-26T23:01:02.341Z,28.85
2022-11-26T23:03:30.414Z,24.80
2022-11-26T23:06:02.122Z,23.53
2022-11-26T23:08:28.641Z,22.88
2022-11-26T23:10:54.997Z,24.35
2022-11-26T23:13:21.353Z,20.00
2022-11-26T23:15:47.755Z,22.08
2022-11-26T23:18:15.296Z,18.23
2022-11-26T23:20:42.676Z,23.33
2022-11-26T23:23:09.844Z,23.73
2022-11-26T23:25:41.027Z,23.23
2022-11-26T23:28:08.222Z,27.70
2022-11-26T23:30:35.806Z,30.47
2022-11-26T23:33:02.162Z,26.63
2022-11-26T23:35:28.586Z,39.63
2022-11-26T23:37:54.933Z,53.15
2022-11-26T23:40:21.293Z,52.88
2022-11-26T23:42:47.685Z,44.40
2022-11-26T23:45:14.014Z,27.85
2022-11-26T23:47:40.344Z,27.13
2022-11-26T23:50:07.837Z,26.05
2022-11-26T23:52:35.451Z,25.02
2022-11-26T23:55:03.477Z,27.03
2022-11-26T23:57:29.895Z,26.13
2022-11-26T23:59:56.316Z,29.55
